createdAt,value
2023-01-01T00:01:12.273Z,100260.47
2023-01-01T00:03:39.329Z,100262.19
2023-01-01T00:06:13.728Z,100261.22
2023-01-01T00:08:40.832Z,100257.63
2023-01-01T00:11:09.270Z,100254.16
2023-01-01T00:13:38.489Z,100255.06
2023-01-01T00:16:05.872Z,100249.09
2023-01-01T00:18:32.881Z,100264.78
2023-01-01T00:21:15.387Z,100276.09
2023-01-01T00:23:41.998Z,100274.44
2023-01-01T00:26:13.388Z,100264.78
2023-01-01T00:28:39.952Z,100272.53
2023-01-01T00:31:17.423Z,100282.38
2023-01-01T00:33:44.916Z,100279.53
2023-01-01T00:36:14.514Z,100283.94
2023-01-01T00:38:42.866Z,100284.91
2023-01-01T00:41:09.860Z,100284.09
2023-01-01T00:43:36.941Z,100288.38
2023-01-01T00:46:04.838Z,100278.63
2023-01-01T00:48:32.263Z,100267.91
2023-01-01T00:51:08.272Z,100290.84
2023-01-01T00:53:35.054Z,100295.13
2023-01-01T00:56:01.678Z,100287.44
2023-01-01T00:58:28.513Z,100281.00
2023-01-01T01:00:55.409Z,100280.22
2023-01-01T01:03:28.810Z,100276.09
2023-01-01T01:05:59.292Z,100262.94
2023-01-01T01:08:30.907Z,100263.97
2023-01-01T01:11:09.341Z,100275.19
2023-01-01T01:13:37.008Z,100270.56
2023-01-01T01:16:19.234Z,100266.56
2023-01-01T01:19:00.359Z,100269.19
2023-01-01T01:21:30.536Z,100281.19
2023-01-01T01:23:59.772Z,100286.53
2023-01-01T01:26:30.577Z,100287.41
2023-01-01T01:28:58.250Z,100281.31
2023-01-01T01:31:28.444Z,100297.75
2023-01-01T01:33:55.467Z,100289.81
2023-01-01T01:36:22.238Z,100307.44
2023-01-01T01:38:48.867Z,100300.34
2023-01-01T01:41:27.497Z,100293.28
2023-01-01T01:44:00.752Z,100294.22
2023-01-01T01:46:34.756Z,100298.78
2023-01-01T01:49:10.127Z,100314.25
2023-01-01T01:51:39.732Z,100319.00
2023-01-01T01:54:11.938Z,100317.31
2023-01-01T01:56:42.342Z,100321.63
2023-01-01T01:59:09.417Z,100316.25
2023-01-01T02:01:36.179Z,100325.00
2023-01-01T02:04:03.860Z,100325.31
2023-01-01T02:06:32.668Z,100325.16
2023-01-01T02:09:03.609Z,100321.78
2023-01-01T02:11:30.373Z,100329.03
2023-01-01T02:13:57.983Z,100318.47
2023-01-01T02:16:27.127Z,100323.81
2023-01-01T02:18:56.479Z,100322.88
2023-01-01T02:21:33.587Z,100313.22
2023-01-01T02:24:03.039Z,100321.03
2023-01-01T02:26:38.600Z,100338.47
2023-01-01T02:29:11.754Z,100323.78
2023-01-01T02:31:52.205Z,100320.28
2023-01-01T02:34:24.254Z,100328.81
2023-01-01T02:36:55.866Z,100332.47
2023-01-01T02:39:28.041Z,100320.94
2023-01-01T02:41:57.770Z,100330.72
2023-01-01T02:44:26.976Z,100329.19
2023-01-01T02:46:53.749Z,100323.94
2023-01-01T02:49:27.288Z,100329.78
2023-01-01T02:52:42.913Z,100335.44
2023-01-01T02:55:38.719Z,100334.47
2023-01-01T02:58:47.167Z,100330.19
2023-01-01T03:01:28.510Z,100325.91
2023-01-01T03:04:07.099Z,100316.97
2023-01-01T03:07:06.567Z,100330.19
2023-01-01T03:09:57.373Z,100334.44
2023-01-01T03:12:45.530Z,100331.84
2023-01-01T03:15:45.619Z,100324.78
2023-01-01T03:18:30.940Z,100340.91
2023-01-01T03:21:02.504Z,100345.16
2023-01-01T03:23:46.008Z,100341.69
2023-01-01T03:26:18.334Z,100332.97
2023-01-01T03:28:55.943Z,100342.56
2023-01-01T03:31:25.841Z,100351.38
2023-01-01T03:34:00.120Z,100350.44
2023-01-01T03:36:39.194Z,100357.66
2023-01-01T03:39:17.563Z,100361.81
2023-01-01T03:41:49.805Z,100364.38
2023-01-01T03:44:44.168Z,100359.22
2023-01-01T03:47:10.784Z,100357.38
2023-01-01T03:49:37.481Z,100345.28
2023-01-01T03:52:19.982Z,100355.88
2023-01-01T03:55:09.073Z,100355.19
2023-01-01T03:57:41.787Z,100352.41
2023-01-01T04:00:17.295Z,100345.44
2023-01-01T04:02:58.993Z,100344.47
2023-01-01T04:05:26.944Z,100339.28
2023-01-01T04:07:54.192Z,100345.28
2023-01-01T04:10:22.428Z,100335.06
2023-01-01T04:12:55.462Z,100347.03
2023-01-01T04:15:25.977Z,100359.19
2023-01-01T04:17:53.759Z,100351.41
2023-01-01T04:20:21.089Z,100367.13
2023-01-01T04:22:48.026Z,100365.28
2023-01-01T04:25:15.310Z,100366.31
2023-01-01T04:27:44.244Z,100374.94
2023-01-01T04:30:13.126Z,100372.44
2023-01-01T04:32:40.086Z,100380.19
2023-01-01T04:35:07.941Z,100378.59
2023-01-01T04:37:37.981Z,100369.97
2023-01-01T04:40:06.043Z,100372.34
2023-01-01T04:42:35.639Z,100368.13
2023-01-01T04:45:02.585Z,100375.06
2023-01-01T04:47:29.199Z,100381.31
2023-01-01T04:49:55.876Z,100365.53
2023-01-01T04:52:22.501Z,100384.44
2023-01-01T04:54:49.085Z,100382.97
2023-01-01T04:57:16.218Z,100383.81
2023-01-01T04:59:42.830Z,100389.06
2023-01-01T05:02:09.542Z,100394.31
2023-01-01T05:04:36.240Z,100403.09
2023-01-01T05:07:02.835Z,100411.66
2023-01-01T05:09:38.501Z,100414.41
2023-01-01T05:12:05.256Z,100420.50
2023-01-01T05:14:31.828Z,100412.50
2023-01-01T05:16:58.438Z,100417.78
2023-01-01T05:19:25.093Z,100421.41
2023-01-01T05:21:51.661Z,100425.59
2023-01-01T05:24:18.231Z,100428.41
2023-01-01T05:26:45.329Z,100418.41
2023-01-01T05:29:16.417Z,100426.34
2023-01-01T05:31:44.939Z,100435.25
2023-01-01T05:34:11.775Z,100436.81
2023-01-01T05:36:39.241Z,100451.97
2023-01-01T05:39:12.449Z,100448.50
2023-01-01T05:41:42.154Z,100441.47
2023-01-01T05:44:09.711Z,100447.59
2023-01-01T05:46:36.561Z,100457.25
2023-01-01T05:49:03.230Z,100445.84
2023-01-01T05:53:58.236Z,100433.63
2023-01-01T05:56:25.650Z,100443.31
2023-01-01T05:58:52.257Z,100444.84
2023-01-01T06:01:21.717Z,100446.69
2023-01-01T06:03:51.002Z,100445.97
2023-01-01T06:06:22.991Z,100451.09
2023-01-01T06:08:52.400Z,100451.94
2023-01-01T06:11:19.517Z,100456.44
2023-01-01T06:13:47.216Z,100465.22
2023-01-01T06:16:14.795Z,100456.47
2023-01-01T06:18:41.695Z,100465.06
2023-01-01T06:21:29.251Z,100477.28
2023-01-01T06:23:57.530Z,100468.66
2023-01-01T06:26:27.680Z,100481.75
2023-01-01T06:28:56.056Z,100495.88
2023-01-01T06:31:23.628Z,100513.31
2023-01-01T06:33:51.037Z,100520.25
2023-01-01T06:36:20.080Z,100505.44
2023-01-01T06:38:48.808Z,100505.38
2023-01-01T06:41:21.086Z,100511.50
2023-01-01T06:43:47.939Z,100499.28
2023-01-01T06:46:20.714Z,100506.38
2023-01-01T06:48:49.390Z,100502.78
2023-01-01T06:51:27.654Z,100500.13
2023-01-01T06:53:54.966Z,100500.13
2023-01-01T06:56:22.050Z,100507.28
2023-01-01T06:58:48.949Z,100526.50
2023-01-01T07:01:18.176Z,100530.88
2023-01-01T07:03:54.296Z,100533.53
2023-01-01T07:06:22.150Z,100545.66
2023-01-01T07:08:49.344Z,100543.16
2023-01-01T07:11:16.105Z,100552.75
2023-01-01T07:13:44.111Z,100550.06
2023-01-01T07:16:13.297Z,100566.66
2023-01-01T07:18:40.121Z,100567.53
2023-01-01T07:21:26.658Z,100574.44
2023-01-01T07:23:56.384Z,100577.00
2023-01-01T07:26:27.313Z,100584.03
2023-01-01T07:28:54.259Z,100568.41
2023-01-01T07:31:20.990Z,100579.75
2023-01-01T07:33:47.694Z,100578.06
2023-01-01T07:36:16.695Z,100580.56
2023-01-01T07:38:43.186Z,100585.06
2023-01-01T07:41:09.941Z,100582.44
2023-01-01T07:43:36.493Z,100591.91
2023-01-01T07:46:03.373Z,100592.03
2023-01-01T07:48:34.656Z,100599.84
2023-01-01T07:51:04.539Z,100604.25
2023-01-01T07:53:31.096Z,100601.59
2023-01-01T07:55:57.642Z,100607.69
2023-01-01T07:58:24.194Z,100632.19
2023-01-01T08:00:53.965Z,100611.25
2023-01-01T08:03:20.549Z,100617.41
2023-01-01T08:05:50.737Z,100619.16
2023-01-01T08:08:17.280Z,100624.47
2023-01-01T08:10:45.950Z,100631.47
2023-01-01T08:13:12.490Z,100635.84
2023-01-01T08:15:39.116Z,100648.03
2023-01-01T08:18:06.007Z,100655.06
2023-01-01T08:20:33.546Z,100659.44
2023-01-01T08:23:07.153Z,100662.00
2023-01-01T08:25:34.895Z,100673.34
2023-01-01T08:28:01.524Z,100676.88
2023-01-01T08:30:28.200Z,100696.94
2023-01-01T08:32:54.750Z,100709.16
2023-01-01T08:35:21.360Z,100717.03
2023-01-01T08:37:47.984Z,100718.72
2023-01-01T08:40:14.795Z,100731.78
2023-01-01T08:42:41.476Z,100738.84
2023-01-01T08:45:09.096Z,100744.94
2023-01-01T08:47:35.692Z,100750.06
2023-01-01T08:50:02.335Z,100739.66
2023-01-01T08:52:29.251Z,100730.06
2023-01-01T08:54:56.007Z,100737.09
2023-01-01T08:57:22.592Z,100755.28
2023-01-01T08:59:49.192Z,100745.72
2023-01-01T09:02:19.470Z,100750.06
2023-01-01T09:04:46.164Z,100766.66
2023-01-01T09:07:12.669Z,100777.94
2023-01-01T09:09:39.252Z,100782.25
2023-01-01T09:12:06.308Z,100779.59
2023-01-01T09:14:34.164Z,100790.06
2023-01-01T09:17:01.427Z,100801.31
2023-01-01T09:19:28.209Z,100801.28
2023-01-01T09:21:55.289Z,100817.88
2023-01-01T09:24:21.985Z,100811.78
2023-01-01T09:26:49.867Z,100824.84
2023-01-01T09:29:18.673Z,100824.00
2023-01-01T09:31:45.583Z,100833.41
2023-01-01T09:34:12.479Z,100846.94
2023-01-01T09:36:39.411Z,100857.41
2023-01-01T09:39:06.510Z,100863.16
2023-01-01T09:41:57.913Z,100887.53
2023-01-01T09:44:45.173Z,100891.28
2023-01-01T09:47:22.187Z,100887.50
2023-01-01T09:49:50.828Z,100878.53
2023-01-01T09:52:20.112Z,100884.91
2023-01-01T09:54:57.580Z,100872.19
2023-01-01T09:57:31.960Z,100865.63
2023-01-01T09:59:59.521Z,100853.41
2023-01-01T10:02:29.069Z,100856.22
2023-01-01T10:05:11.219Z,100845.13
2023-01-01T10:08:01.626Z,100844.28
2023-01-01T10:10:49.969Z,100838.13
2023-01-01T10:13:38.480Z,100842.63
2023-01-01T10:16:25.482Z,100846.97
2023-01-01T10:18:58.784Z,100851.25
2023-01-01T10:21:43.514Z,100853.97
2023-01-01T10:24:42.911Z,100869.59
2023-01-01T10:27:23.467Z,100861.56
2023-01-01T10:29:55.480Z,100862.59
2023-01-01T10:32:36.296Z,100863.56
2023-01-01T10:35:13.876Z,100843.44
2023-01-01T10:37:41.771Z,100847.72
2023-01-01T10:40:30.517Z,100845.22
2023-01-01T10:42:59.521Z,100837.31
2023-01-01T10:45:29.162Z,100842.41
2023-01-01T10:48:18.877Z,100852.84
2023-01-01T10:51:22.446Z,100852.22
2023-01-01T10:53:55.663Z,100860.09
2023-01-01T10:57:03.985Z,100850.66
2023-01-01T10:59:38.131Z,100839.47
2023-01-01T11:02:22.373Z,100844.78
2023-01-01T11:05:23.214Z,100826.78
2023-01-01T11:07:53.175Z,100822.03
2023-01-01T11:10:39.959Z,100818.56
2023-01-01T11:13:23.409Z,100827.19
2023-01-01T11:16:11.945Z,100820.28
2023-01-01T11:18:42.273Z,100831.53
2023-01-01T11:21:13.372Z,100823.78
2023-01-01T11:23:44.234Z,100822.16
2023-01-01T11:26:22.589Z,100824.75
2023-01-01T11:29:33.655Z,100834.28
2023-01-01T11:32:21.460Z,100846.56
2023-01-01T11:35:16.514Z,100842.97
2023-01-01T11:37:51.066Z,100863.81
2023-01-01T11:40:37.353Z,100865.31
2023-01-01T11:43:26.199Z,100861.75
2023-01-01T11:46:07.213Z,100872.34
2023-01-01T11:48:52.267Z,100879.53
2023-01-01T11:51:53.455Z,100871.56
2023-01-01T11:54:38.995Z,100883.75
2023-01-01T11:57:19.190Z,100875.84
2023-01-01T12:00:00.329Z,100886.38
2023-01-01T12:02:42.779Z,100883.78
2023-01-01T12:05:30.664Z,100874.44
2023-01-01T12:08:17.388Z,100866.59
2023-01-01T12:11:24.751Z,100876.16
2023-01-01T12:14:17.431Z,100871.91
2023-01-01T12:17:33.287Z,100866.72
2023-01-01T12:20:31.440Z,100871.97
2023-01-01T12:23:07.744Z,100863.25
2023-01-01T12:25:47.794Z,100864.09
2023-01-01T12:29:10.451Z,100867.53
2023-01-01T12:31:52.813Z,100879.72
2023-01-01T12:34:43.848Z,100876.34
2023-01-01T12:37:36.180Z,100861.56
2023-01-01T12:40:37.327Z,100845.09
2023-01-01T12:43:28.826Z,100841.66
2023-01-01T12:46:27.363Z,100829.47
2023-01-01T12:49:58.798Z,100833.00
2023-01-01T12:53:12.794Z,100832.09
2023-01-01T12:56:22.540Z,100835.63
2023-01-01T12:59:20.051Z,100845.22
2023-01-01T13:02:02.206Z,100845.19
2023-01-01T13:04:43.422Z,100837.38
2023-01-01T13:07:19.124Z,100841.75
2023-01-01T13:10:00.972Z,100848.72
2023-01-01T13:13:05.623Z,100840.84
2023-01-01T13:15:51.131Z,100857.41
2023-01-01T13:19:29.690Z,100848.69
2023-01-01T13:21:41.374Z,100846.94
2023-01-01T13:24:40.432Z,100855.69
2023-01-01T13:27:52.479Z,100860.91
2023-01-01T13:30:47.178Z,100853.94
2023-01-01T13:33:33.789Z,100854.81
2023-01-01T13:36:42.911Z,100860.91
2023-01-01T13:40:16.743Z,100869.66
2023-01-01T13:42:59.345Z,100885.31
2023-01-01T13:49:01.945Z,100886.19
2023-01-01T13:52:05.833Z,100860.03
2023-01-01T13:54:59.336Z,100870.50
2023-01-01T13:58:01.278Z,100875.75
2023-01-01T14:00:47.937Z,100881.84
2023-01-01T14:03:24.645Z,100881.00
2023-01-01T14:06:02.494Z,100876.66
2023-01-01T14:08:42.190Z,100881.88
2023-01-01T14:11:30.442Z,100887.97
2023-01-01T14:14:34.816Z,100888.81
2023-01-01T14:17:15.021Z,100894.94
2023-01-01T14:19:50.555Z,100901.03
2023-01-01T14:22:23.980Z,100898.44
2023-01-01T14:25:09.484Z,100890.53
2023-01-01T14:27:59.869Z,100885.34
2023-01-01T14:30:41.271Z,100895.81
2023-01-01T14:33:38.584Z,100894.91
2023-01-01T14:36:31.029Z,100872.28
2023-01-01T14:39:06.163Z,100880.09
2023-01-01T14:42:04.668Z,100885.31
2023-01-01T14:44:43.669Z,100893.19
2023-01-01T14:47:29.056Z,100888.84
2023-01-01T14:50:20.175Z,100891.44
2023-01-01T14:53:08.936Z,100898.44
2023-01-01T14:55:46.225Z,100906.22
2023-01-01T14:58:47.449Z,100909.69
2023-01-01T15:01:31.819Z,100908.81
2023-01-01T15:04:04.164Z,100919.28
2023-01-01T15:06:34.520Z,100911.50
2023-01-01T15:09:09.556Z,100917.56
2023-01-01T15:11:45.412Z,100911.41
2023-01-01T15:14:41.171Z,100923.69
2023-01-01T15:17:14.238Z,100924.50
2023-01-01T15:20:04.072Z,100921.81
2023-01-01T15:22:46.853Z,100929.72
2023-01-01T15:25:31.777Z,100925.41
2023-01-01T15:28:05.742Z,100915.84
2023-01-01T15:30:34.447Z,100911.47
2023-01-01T15:33:18.500Z,100909.72
2023-01-01T15:36:13.787Z,100916.53
2023-01-01T15:39:01.275Z,100914.03
2023-01-01T15:41:55.399Z,100908.81
2023-01-01T15:44:58.237Z,100920.94
2023-01-01T15:47:41.409Z,100910.53
2023-01-01T15:53:28.102Z,100902.63
2023-01-01T15:56:18.460Z,100896.59
2023-01-01T15:59:17.430Z,100897.44
2023-01-01T16:02:21.419Z,100901.75
2023-01-01T16:05:00.243Z,100908.72
2023-01-01T16:07:33.072Z,100909.56
2023-01-01T16:10:22.971Z,100910.41
2023-01-01T16:12:57.640Z,100907.00
2023-01-01T16:15:46.246Z,100908.63
2023-01-01T16:18:27.156Z,100907.78
2023-01-01T16:21:02.819Z,100907.81
2023-01-01T16:23:36.129Z,100913.94
2023-01-01T16:26:17.607Z,100923.53
2023-01-01T16:29:04.932Z,100927.88
2023-01-01T16:31:37.138Z,100929.63
2023-01-01T16:34:16.115Z,100933.97
2023-01-01T16:36:50.851Z,100927.00
2023-01-01T16:39:20.760Z,100933.97
2023-01-01T16:41:59.586Z,100931.38
2023-01-01T16:44:32.219Z,100929.53
2023-01-01T16:47:10.273Z,100925.25
2023-01-01T16:49:45.711Z,100929.59
2023-01-01T16:52:28.738Z,100932.19
2023-01-01T16:55:04.539Z,100928.78
2023-01-01T16:57:50.787Z,100925.28
2023-01-01T17:00:20.905Z,100932.22
2023-01-01T17:03:04.878Z,100935.66
2023-01-01T17:05:43.623Z,100939.06
2023-01-01T17:08:12.020Z,100937.34
2023-01-01T17:11:09.562Z,100933.94
2023-01-01T17:13:55.402Z,100937.44
2023-01-01T17:16:41.145Z,100935.59
2023-01-01T17:19:16.682Z,100926.97
2023-01-01T17:21:57.719Z,100935.66
2023-01-01T17:24:31.364Z,100940.88
2023-01-01T17:27:08.258Z,100935.59
2023-01-01T17:30:05.507Z,100937.34
2023-01-01T17:32:38.802Z,100930.31
2023-01-01T17:35:33.040Z,100935.50
2023-01-01T17:38:03.232Z,100902.31
2023-01-01T17:40:37.009Z,100933.78
2023-01-01T17:43:05.222Z,100929.44
2023-01-01T17:45:47.926Z,100931.09
2023-01-01T17:48:28.216Z,100916.25
2023-01-01T17:51:05.703Z,100911.09
2023-01-01T17:53:46.172Z,100916.28
2023-01-01T17:56:21.408Z,100910.28
2023-01-01T17:58:59.181Z,100908.44
2023-01-01T18:01:43.651Z,100900.63
2023-01-01T18:04:22.913Z,100903.19
2023-01-01T18:07:05.951Z,100897.06
2023-01-01T18:09:51.537Z,100890.09
2023-01-01T18:12:27.889Z,100890.69
2023-01-01T18:15:06.105Z,100900.50
2023-01-01T18:17:49.746Z,100905.66
2023-01-01T18:20:29.792Z,100901.34
2023-01-01T18:23:01.438Z,100899.66
2023-01-01T18:25:38.639Z,100896.19
2023-01-01T18:28:13.191Z,100894.41
2023-01-01T18:30:51.301Z,100885.69
2023-01-01T18:33:24.771Z,100875.19
2023-01-01T18:36:13.939Z,100884.75
2023-01-01T18:39:00.147Z,100890.66
2023-01-01T18:41:47.529Z,100876.06
2023-01-01T18:44:30.155Z,100879.56
2023-01-01T18:47:17.806Z,100880.38
2023-01-01T18:50:02.880Z,100870.03
2023-01-01T18:52:38.713Z,100873.41
2023-01-01T18:55:19.801Z,100876.81
2023-01-01T18:58:30.626Z,100876.06
2023-01-01T19:01:20.643Z,100880.34
2023-01-01T19:04:02.135Z,100871.69
2023-01-01T19:06:55.194Z,100876.72
2023-01-01T19:09:30.535Z,100870.59
2023-01-01T19:12:01.680Z,100865.41
2023-01-01T19:14:32.937Z,100862.78
2023-01-01T19:17:05.608Z,100854.09
2023-01-01T19:19:48.929Z,100859.28
2023-01-01T19:22:29.983Z,100861.81
2023-01-01T19:25:39.153Z,100867.75
2023-01-01T19:28:19.088Z,100870.59
2023-01-01T19:30:55.782Z,100866.06
2023-01-01T19:33:32.261Z,100863.44
2023-01-01T19:36:08.508Z,100865.28
2023-01-01T19:38:44.452Z,100857.41
2023-01-01T19:41:11.665Z,100857.34
2023-01-01T19:43:38.697Z,100854.81
2023-01-01T19:46:05.520Z,100846.97
2023-01-01T19:48:32.151Z,100849.56
2023-01-01T19:50:58.851Z,100828.63
2023-01-01T19:53:25.409Z,100825.81
2023-01-01T19:55:51.985Z,100828.38
2023-01-01T19:58:19.926Z,100821.63
2023-01-01T20:00:46.607Z,100808.50
2023-01-01T20:06:01.721Z,100802.47
2023-01-01T20:08:28.925Z,100806.81
2023-01-01T20:10:55.502Z,100797.25
2023-01-01T20:13:22.312Z,100790.13
2023-01-01T20:15:48.926Z,100788.44
2023-01-01T20:18:16.300Z,100783.28
2023-01-01T20:21:03.177Z,100791.03
2023-01-01T20:23:29.855Z,100773.47
2023-01-01T20:25:56.486Z,100775.25
2023-01-01T20:28:41.669Z,100782.19
2023-01-01T20:31:08.292Z,100785.75
2023-01-01T20:33:34.844Z,100777.09
2023-01-01T20:36:19.813Z,100776.13
2023-01-01T20:38:46.342Z,100770.88
2023-01-01T20:41:25.117Z,100770.84
2023-01-01T20:43:53.641Z,100763.09
2023-01-01T20:46:20.497Z,100756.97
2023-01-01T20:48:47.213Z,100751.63
2023-01-01T20:51:14.259Z,100742.16
2023-01-01T20:53:40.824Z,100733.47
2023-01-01T20:56:07.549Z,100732.69
2023-01-01T20:58:34.171Z,100730.94
2023-01-01T21:01:00.856Z,100733.53
2023-01-01T21:03:27.915Z,100722.19
2023-01-01T21:05:55.486Z,100729.94
2023-01-01T21:08:22.028Z,100735.34
2023-01-01T21:10:48.795Z,100721.44
2023-01-01T21:13:15.422Z,100712.75
2023-01-01T21:15:42.209Z,100716.22
2023-01-01T21:18:12.490Z,100710.16
2023-01-01T21:20:44.877Z,100716.38
2023-01-01T21:23:27.771Z,100710.97
2023-01-01T21:25:54.721Z,100699.72
2023-01-01T21:28:21.949Z,100692.66
2023-01-01T21:30:55.478Z,100685.00
2023-01-01T21:33:32.048Z,100670.22
2023-01-01T21:36:11.302Z,100660.63
2023-01-01T21:38:37.848Z,100660.59
2023-01-01T21:41:23.586Z,100659.56
2023-01-01T21:43:53.883Z,100654.53
2023-01-01T21:46:34.495Z,100651.00
2023-01-01T21:49:03.283Z,100645.84
2023-01-01T21:51:38.145Z,100648.47
2023-01-01T21:54:10.681Z,100647.44
2023-01-01T21:56:39.548Z,100647.50
2023-01-01T21:59:27.130Z,100638.91
2023-01-01T22:02:06.202Z,100638.00
2023-01-01T22:04:40.743Z,100637.16
2023-01-01T22:10:16.486Z,100618.88
2023-01-01T22:12:43.780Z,100627.56
2023-01-01T22:15:25.731Z,100617.84
2023-01-01T22:18:19.464Z,100617.91
2023-01-01T22:20:47.320Z,100608.41
2023-01-01T22:23:19.680Z,100594.56
2023-01-01T22:25:47.488Z,100585.84
2023-01-01T22:28:40.504Z,100591.91
2023-01-01T22:31:13.269Z,100592.69
2023-01-01T22:33:44.058Z,100601.41
2023-01-01T22:36:33.622Z,100590.97
2023-01-01T22:39:13.408Z,100591.97
2023-01-01T22:41:42.178Z,100584.06
2023-01-01T22:44:13.282Z,100582.34
2023-01-01T22:46:41.375Z,100589.38
2023-01-01T22:49:38.799Z,100578.03
2023-01-01T22:52:05.396Z,100589.28
2023-01-01T22:54:31.965Z,100582.34
2023-01-01T22:56:58.486Z,100581.47
2023-01-01T22:59:25.019Z,100578.06
2023-01-01T23:01:51.643Z,100578.03
2023-01-01T23:04:18.301Z,100577.84
2023-01-01T23:06:45.071Z,100574.53
2023-01-01T23:09:12.365Z,100575.47
2023-01-01T23:11:39.601Z,100578.91
2023-01-01T23:14:24.390Z,100572.84
2023-01-01T23:16:51.029Z,100568.53
2023-01-01T23:19:17.976Z,100566.75
2023-01-01T23:21:45.082Z,100556.34
2023-01-01T23:24:16.930Z,100558.09
2023-01-01T23:26:44.003Z,100553.72
2023-01-01T23:29:12.861Z,100554.66
2023-01-01T23:31:40.501Z,100556.38
2023-01-01T23:34:07.954Z,100555.47
2023-01-01T23:36:34.919Z,100558.16
2023-01-01T23:39:01.483Z,100564.28
2023-01-01T23:41:28.144Z,100557.34
2023-01-01T23:43:54.689Z,100550.38
2023-01-01T23:46:21.678Z,100525.13
2023-01-01T23:48:48.895Z,100534.69
2023-01-01T23:51:17.041Z,100524.25
2023-01-01T23:53:43.680Z,100518.13
2023-01-01T23:56:10.405Z,100512.94
2023-01-01T23:58:37.010Z,100515.59
